createdAt,value
2018-01-22T00:01:16.889Z,1.20
2018-01-22T00:03:44.491Z,1.30
2018-01-22T00:06:11.910Z,1.40
2018-01-22T00:08:39.354Z,1.40
2018-01-22T00:11:06.791Z,1.40
2018-01-22T00:13:34.227Z,1.50
2018-01-22T00:16:02.442Z,1.40
2018-01-22T00:18:30.001Z,1.40
2018-01-22T00:20:57.433Z,1.50
2018-01-22T00:23:24.875Z,1.50
2018-01-22T00:25:52.366Z,1.50
2018-01-22T00:28:19.808Z,1.50
2018-01-22T00:30:47.282Z,1.50
2018-01-22T00:33:14.743Z,1.40
2018-01-22T00:35:42.181Z,1.50
2018-01-22T00:38:09.649Z,1.50
2018-01-22T00:40:37.081Z,1.50
2018-01-22T00:43:04.566Z,1.50
2018-01-22T00:45:32.010Z,1.50
2018-01-22T00:47:59.479Z,1.40
2018-01-22T00:50:26.945Z,1.40
2018-01-22T00:52:54.393Z,1.50
2018-01-22T00:55:21.855Z,1.50
2018-01-22T00:57:49.307Z,1.50
2018-01-22T01:00:16.750Z,1.40
2018-01-22T01:02:44.182Z,1.40
2018-01-22T01:05:11.665Z,1.40
2018-01-22T01:07:39.137Z,1.40
2018-01-22T01:10:06.577Z,1.40
2018-01-22T01:12:34.021Z,1.50
2018-01-22T01:15:01.447Z,1.50
2018-01-22T01:17:29.655Z,1.50
2018-01-22T01:19:57.100Z,1.40
2018-01-22T01:22:24.587Z,1.50
2018-01-22T01:24:52.011Z,1.50
2018-01-22T01:27:19.499Z,1.50
2018-01-22T01:29:46.978Z,1.50
2018-01-22T01:32:14.405Z,1.50
2018-01-22T01:34:41.876Z,1.50
2018-01-22T01:37:09.405Z,1.50
2018-01-22T01:39:36.815Z,1.60
2018-01-22T01:42:04.337Z,1.60
2018-01-22T01:44:31.762Z,1.60
2018-01-22T01:46:59.201Z,1.50
2018-01-22T01:49:27.391Z,1.50
2018-01-22T01:51:54.877Z,1.40
2018-01-22T01:54:22.333Z,1.50
2018-01-22T01:56:49.773Z,1.40
2018-01-22T01:59:17.245Z,1.50
2018-01-22T02:01:44.691Z,1.40
2018-01-22T02:04:12.142Z,1.40
2018-01-22T02:06:39.567Z,1.40
2018-01-22T02:09:07.762Z,1.50
2018-01-22T02:11:35.189Z,1.50
2018-01-22T02:14:03.425Z,1.60
2018-01-22T02:16:30.874Z,1.60
2018-01-22T02:18:58.464Z,1.70
2018-01-22T02:21:25.985Z,1.60
2018-01-22T02:23:53.413Z,1.60
2018-01-22T02:26:20.849Z,1.50
2018-01-22T02:28:49.049Z,1.60
2018-01-22T02:31:16.574Z,1.50
2018-01-22T02:33:43.986Z,1.60
2018-01-22T02:36:11.431Z,1.60
2018-01-22T02:38:38.905Z,1.60
2018-01-22T02:41:06.345Z,1.60
2018-01-22T02:43:33.770Z,1.60
2018-01-22T02:46:01.213Z,1.60
2018-01-22T02:48:29.454Z,1.60
2018-01-22T02:50:56.904Z,1.60
2018-01-22T02:53:24.341Z,1.60
2018-01-22T02:55:51.890Z,1.50
2018-01-22T02:58:19.314Z,1.50
2018-01-22T03:00:47.550Z,1.50
2018-01-22T03:03:14.989Z,1.50
2018-01-22T03:05:42.429Z,1.60
2018-01-22T03:08:09.922Z,1.60
2018-01-22T03:10:37.373Z,1.50
2018-01-22T03:13:04.833Z,1.50
2018-01-22T03:15:32.266Z,1.50
2018-01-22T03:17:59.714Z,1.50
2018-01-22T03:20:27.149Z,1.50
2018-01-22T03:22:55.355Z,1.50
2018-01-22T03:25:22.782Z,1.50
2018-01-22T03:27:50.289Z,1.50
2018-01-22T03:30:17.849Z,1.60
2018-01-22T03:32:45.306Z,1.50
2018-01-22T03:35:12.852Z,1.50
2018-01-22T03:37:40.296Z,1.50
2018-01-22T03:40:07.730Z,1.50
2018-01-22T03:42:35.222Z,1.40
2018-01-22T03:47:36.701Z,1.50
2018-01-22T03:50:04.158Z,1.50
2018-01-22T03:52:31.606Z,1.40
2018-01-22T03:54:59.070Z,1.40
2018-01-22T03:57:26.545Z,1.30
2018-01-22T03:59:54.073Z,1.40
2018-01-22T04:02:21.509Z,1.40
2018-01-22T04:04:48.989Z,1.40
2018-01-22T04:07:17.261Z,1.50
2018-01-22T04:09:44.692Z,1.40
2018-01-22T04:12:12.138Z,1.40
2018-01-22T04:14:39.576Z,1.40
2018-01-22T04:17:07.822Z,1.40
2018-01-22T04:19:35.270Z,1.40
2018-01-22T04:22:02.736Z,1.50
2018-01-22T04:24:30.193Z,1.50
2018-01-22T04:26:57.642Z,1.40
2018-01-22T04:29:25.101Z,1.40
2018-01-22T04:31:52.658Z,1.50
2018-01-22T04:34:20.292Z,1.60
2018-01-22T04:36:47.766Z,1.50
2018-01-22T04:39:15.204Z,1.50
2018-01-22T04:41:42.677Z,1.50
2018-01-22T04:44:10.109Z,1.50
2018-01-22T04:46:37.590Z,1.50
2018-01-22T04:49:05.046Z,1.50
2018-01-22T04:51:32.496Z,1.50
2018-01-22T04:53:59.925Z,1.60
2018-01-22T04:56:27.410Z,1.60
2018-01-22T04:58:54.869Z,1.60
2018-01-22T05:01:22.307Z,1.60
2018-01-22T05:03:49.737Z,1.50
2018-01-22T05:06:17.933Z,1.50
2018-01-22T05:08:45.374Z,1.50
2018-01-22T05:11:12.796Z,1.60
2018-01-22T05:13:40.259Z,1.60
2018-01-22T05:16:07.692Z,1.60
2018-01-22T05:18:35.110Z,1.60
2018-01-22T05:21:02.590Z,1.60
2018-01-22T05:23:30.045Z,1.60
2018-01-22T05:25:57.509Z,1.60
2018-01-22T05:28:24.962Z,1.60
2018-01-22T05:30:52.404Z,1.60
2018-01-22T05:33:19.873Z,1.60
2018-01-22T05:35:47.310Z,1.60
2018-01-22T05:38:14.762Z,1.60
2018-01-22T05:40:42.205Z,1.60
2018-01-22T05:43:09.647Z,1.60
2018-01-22T05:45:37.874Z,1.60
2018-01-22T05:48:05.327Z,1.60
2018-01-22T05:50:32.821Z,1.60
2018-01-22T05:53:00.345Z,1.60
2018-01-22T05:55:27.772Z,1.60
2018-01-22T05:57:55.211Z,1.70
2018-01-22T06:00:23.402Z,1.70
2018-01-22T06:02:50.857Z,1.60
2018-01-22T06:05:18.293Z,1.70
2018-01-22T06:07:46.505Z,1.70
2018-01-22T06:10:13.954Z,1.70
2018-01-22T06:12:41.380Z,1.70
2018-01-22T06:15:09.573Z,1.70
2018-01-22T06:17:37.013Z,1.70
2018-01-22T06:20:04.446Z,1.80
2018-01-22T06:22:31.882Z,1.80
2018-01-22T06:24:59.313Z,1.90
2018-01-22T06:27:26.755Z,1.80
2018-01-22T06:29:54.205Z,1.90
2018-01-22T06:32:21.698Z,1.80
2018-01-22T06:34:49.125Z,1.80
2018-01-22T06:37:16.626Z,1.70
2018-01-22T06:39:44.066Z,1.70
2018-01-22T06:42:11.505Z,1.70
2018-01-22T06:44:38.964Z,1.70
2018-01-22T06:47:06.521Z,1.70
2018-01-22T06:49:34.017Z,1.70
2018-01-22T06:52:01.454Z,1.70
2018-01-22T06:54:28.992Z,1.70
2018-01-22T06:56:56.409Z,1.70
2018-01-22T06:59:24.610Z,1.70
2018-01-22T07:01:52.056Z,1.60
2018-01-22T07:04:19.533Z,1.70
2018-01-22T07:06:47.093Z,1.70
2018-01-22T07:09:14.513Z,1.60
2018-01-22T07:11:42.738Z,1.70
2018-01-22T07:14:10.177Z,1.60
2018-01-22T07:16:37.614Z,1.70
2018-01-22T07:19:05.916Z,1.80
2018-01-22T07:21:33.353Z,1.80
2018-01-22T07:24:00.931Z,1.90
2018-01-22T07:26:28.406Z,3.20
2018-01-22T07:28:55.944Z,1.90
2018-01-22T07:31:23.354Z,1.80
2018-01-22T07:33:51.676Z,1.80
2018-01-22T07:36:19.085Z,1.70
2018-01-22T07:38:47.408Z,1.80
2018-01-22T07:41:14.967Z,1.70
2018-01-22T07:43:42.437Z,1.80
2018-01-22T07:46:09.879Z,1.90
2018-01-22T07:48:37.316Z,1.90
2018-01-22T07:51:04.741Z,2.00
2018-01-22T07:53:32.238Z,2.00
2018-01-22T07:55:59.708Z,2.00
2018-01-22T07:58:27.160Z,2.00
2018-01-22T08:00:54.719Z,2.00
2018-01-22T08:03:22.201Z,1.90
2018-01-22T08:05:49.641Z,1.90
2018-01-22T08:08:17.191Z,2.00
2018-01-22T08:10:44.629Z,1.90
2018-01-22T08:13:12.070Z,2.00
2018-01-22T08:15:40.381Z,2.00
2018-01-22T08:18:07.940Z,2.00
2018-01-22T08:20:35.498Z,2.10
2018-01-22T08:23:02.917Z,2.00
2018-01-22T08:25:31.126Z,2.00
2018-01-22T08:27:58.583Z,2.00
2018-01-22T08:30:26.052Z,2.00
2018-01-22T08:32:53.505Z,2.00
2018-01-22T08:35:20.978Z,2.10
2018-01-22T08:37:48.512Z,2.10
2018-01-22T08:40:15.935Z,2.10
2018-01-22T08:42:44.248Z,2.10
2018-01-22T08:45:11.671Z,2.10
2018-01-22T08:47:39.978Z,2.00
2018-01-22T08:50:07.474Z,2.00
2018-01-22T08:52:34.921Z,2.00
2018-01-22T08:55:02.448Z,2.00
2018-01-22T08:57:29.890Z,2.00
2018-01-22T08:59:58.181Z,2.00
2018-01-22T09:02:25.597Z,2.00
2018-01-22T09:04:53.915Z,2.10
2018-01-22T09:07:21.329Z,2.10
2018-01-22T09:09:49.568Z,2.20
2018-01-22T09:12:17.006Z,2.10
2018-01-22T09:14:44.471Z,2.20
2018-01-22T09:17:11.934Z,2.20
2018-01-22T09:19:39.390Z,2.10
2018-01-22T09:22:06.836Z,2.10
2018-01-22T09:24:34.307Z,2.10
2018-01-22T09:27:01.771Z,2.10
2018-01-22T09:29:29.219Z,2.10
2018-01-22T09:31:56.756Z,2.10
2018-01-22T09:34:24.198Z,2.20
2018-01-22T09:36:51.639Z,2.20
2018-01-22T09:39:19.837Z,2.30
2018-01-22T09:41:47.271Z,2.30
2018-01-22T09:44:15.502Z,2.30
2018-01-22T09:46:42.945Z,2.30
2018-01-22T09:49:10.385Z,2.30
2018-01-22T09:51:37.855Z,0.30
2018-01-22T09:54:05.401Z,2.40
2018-01-22T09:56:32.810Z,2.40
2018-01-22T09:59:00.338Z,2.40
2018-01-22T10:01:27.794Z,2.30
2018-01-22T10:03:55.331Z,2.30
2018-01-22T10:06:22.777Z,2.30
2018-01-22T10:08:50.279Z,2.30
2018-01-22T10:11:17.805Z,2.40
2018-01-22T10:13:45.363Z,2.30
2018-01-22T10:16:12.774Z,2.30
2018-01-22T10:18:41.027Z,2.20
2018-01-22T10:21:08.465Z,2.20
2018-01-22T10:23:35.924Z,2.20
2018-01-22T10:26:03.365Z,2.20
2018-01-22T10:28:30.822Z,2.20
2018-01-22T10:30:58.250Z,2.20
2018-01-22T10:33:26.482Z,2.20
2018-01-22T10:35:53.922Z,2.10
2018-01-22T10:38:21.360Z,2.20
2018-01-22T10:40:48.789Z,2.20
2018-01-22T10:43:17.014Z,2.30
2018-01-22T10:45:44.557Z,2.30
2018-01-22T10:48:12.012Z,2.30
2018-01-22T10:50:40.292Z,2.30
2018-01-22T10:53:07.779Z,2.30
2018-01-22T10:55:35.203Z,2.30
2018-01-22T10:58:02.762Z,2.20
2018-01-22T11:00:30.169Z,2.20
2018-01-22T11:02:57.743Z,2.30
2018-01-22T11:05:25.965Z,2.40
2018-01-22T11:07:53.405Z,2.30
2018-01-22T11:10:20.840Z,2.40
2018-01-22T11:12:48.265Z,2.40
2018-01-22T11:15:15.706Z,2.50
2018-01-22T11:17:43.233Z,2.50
2018-01-22T11:20:10.649Z,2.50
2018-01-22T11:22:38.089Z,2.40
2018-01-22T11:25:05.533Z,2.40
2018-01-22T11:27:33.059Z,2.40
2018-01-22T11:30:00.537Z,2.40
2018-01-22T11:32:28.071Z,2.40
2018-01-22T11:34:55.493Z,2.40
2018-01-22T11:37:23.699Z,2.40
2018-01-22T11:39:51.174Z,2.40
2018-01-22T11:42:18.717Z,2.50
2018-01-22T11:44:46.910Z,2.50
2018-01-22T11:47:14.449Z,2.40
2018-01-22T11:49:42.018Z,2.50
2018-01-22T11:52:09.430Z,2.50
2018-01-22T11:54:37.657Z,2.60
2018-01-22T11:57:05.094Z,2.60
2018-01-22T11:59:32.569Z,2.60
2018-01-22T12:02:00.009Z,2.60
2018-01-22T12:04:27.570Z,2.60
2018-01-22T12:06:54.981Z,2.50
2018-01-22T12:09:23.206Z,2.50
2018-01-22T12:11:50.647Z,2.50
2018-01-22T12:14:18.114Z,2.60
2018-01-22T12:16:45.574Z,2.60
2018-01-22T12:19:13.029Z,2.60
2018-01-22T12:21:40.446Z,2.60
2018-01-22T12:24:08.666Z,2.60
2018-01-22T12:26:36.220Z,2.60
2018-01-22T12:29:03.678Z,2.50
2018-01-22T12:31:31.165Z,2.60
2018-01-22T12:33:58.622Z,2.60
2018-01-22T12:36:26.031Z,2.70
2018-01-22T12:38:53.474Z,2.80
2018-01-22T12:41:20.901Z,2.70
2018-01-22T12:43:48.342Z,2.80
2018-01-22T12:46:15.770Z,2.80
2018-01-22T12:48:43.282Z,2.80
2018-01-22T12:51:10.726Z,2.70
2018-01-22T12:53:38.275Z,2.60
2018-01-22T12:56:05.726Z,2.70
2018-01-22T12:58:33.190Z,2.70
2018-01-22T13:01:00.625Z,2.70
2018-01-22T13:03:28.075Z,2.70
2018-01-22T13:05:55.557Z,2.70
2018-01-22T13:08:23.000Z,2.70
2018-01-22T13:10:50.418Z,2.70
2018-01-22T13:13:18.623Z,2.70
2018-01-22T13:15:46.066Z,2.60
2018-01-22T13:18:13.558Z,2.70
2018-01-22T13:20:41.006Z,2.70
2018-01-22T13:23:08.441Z,2.70
2018-01-22T13:25:38.705Z,2.70
2018-01-22T13:28:06.205Z,2.90
2018-01-22T13:30:33.654Z,2.90
2018-01-22T13:33:01.851Z,2.90
2018-01-22T13:35:29.331Z,2.80
2018-01-22T13:37:56.872Z,2.90
2018-01-22T13:40:29.933Z,2.90
2018-01-22T13:42:58.218Z,3.00
2018-01-22T13:45:25.695Z,3.00
2018-01-22T13:47:53.251Z,3.00
2018-01-22T13:50:20.669Z,3.10
2018-01-22T13:52:48.982Z,3.30
2018-01-22T13:55:16.539Z,3.30
2018-01-22T13:57:44.015Z,3.30
2018-01-22T14:00:11.453Z,3.20
2018-01-22T14:02:38.907Z,3.30
2018-01-22T14:05:06.322Z,3.30
2018-01-22T14:07:34.538Z,3.20
2018-01-22T14:10:01.982Z,3.20
2018-01-22T14:12:29.490Z,3.20
2018-01-22T14:14:57.776Z,3.10
2018-01-22T14:17:25.284Z,3.00
2018-01-22T14:19:52.699Z,3.20
2018-01-22T14:22:20.938Z,3.30
2018-01-22T14:24:48.370Z,3.30
2018-01-22T14:27:15.825Z,3.40
2018-01-22T14:29:43.385Z,3.50
2018-01-22T14:32:10.861Z,3.50
2018-01-22T14:34:38.306Z,3.50
2018-01-22T14:37:05.856Z,3.50
2018-01-22T14:39:33.295Z,3.50
2018-01-22T14:42:00.746Z,3.50
2018-01-22T14:44:28.201Z,3.60
2018-01-22T14:46:55.784Z,3.50
2018-01-22T14:49:23.342Z,3.50
2018-01-22T14:51:50.765Z,3.50
2018-01-22T14:54:18.990Z,3.60
2018-01-22T14:56:46.442Z,3.50
2018-01-22T14:59:13.911Z,3.60
2018-01-22T15:01:41.442Z,3.50
2018-01-22T15:04:09.001Z,3.50
2018-01-22T15:06:36.426Z,3.50
2018-01-22T15:09:04.626Z,3.50
2018-01-22T15:11:32.113Z,3.50
2018-01-22T15:13:59.566Z,3.50
2018-01-22T15:16:27.016Z,3.50
2018-01-22T15:18:54.482Z,3.40
2018-01-22T15:21:21.917Z,3.40
2018-01-22T15:23:49.398Z,3.50
2018-01-22T15:26:16.843Z,3.40
2018-01-22T15:28:44.400Z,3.50
2018-01-22T15:31:12.047Z,3.60
2018-01-22T15:33:39.466Z,3.60
2018-01-22T15:36:08.069Z,3.60
2018-01-22T15:38:35.657Z,3.60
2018-01-22T15:41:03.202Z,3.60
2018-01-22T15:43:30.635Z,3.70
2018-01-22T15:45:58.834Z,3.80
2018-01-22T15:48:26.288Z,3.70
2018-01-22T15:50:53.726Z,3.90
2018-01-22T15:53:21.608Z,4.00
2018-01-22T15:55:49.064Z,4.00
2018-01-22T15:58:16.493Z,3.90
2018-01-22T16:00:43.997Z,3.90
2018-01-22T16:03:11.469Z,3.80
2018-01-22T16:05:39.005Z,3.70
2018-01-22T16:08:06.443Z,3.90
2018-01-22T16:10:33.891Z,3.90
2018-01-22T16:13:02.182Z,3.90
2018-01-22T16:15:29.638Z,3.90
2018-01-22T16:17:57.214Z,4.10
2018-01-22T16:20:24.774Z,4.10
2018-01-22T16:22:52.316Z,4.10
2018-01-22T16:25:19.810Z,4.00
2018-01-22T16:27:47.335Z,4.00
2018-01-22T16:30:14.760Z,4.00
2018-01-22T16:32:43.021Z,3.90
2018-01-22T16:35:11.358Z,3.90
2018-01-22T16:37:39.003Z,3.80
2018-01-22T16:40:06.599Z,4.00
2018-01-22T16:42:34.115Z,4.10
2018-01-22T16:45:01.673Z,4.20
2018-01-22T16:47:34.640Z,4.30
2018-01-22T16:50:02.162Z,4.40
2018-01-22T16:52:29.678Z,4.40
2018-01-22T16:54:57.129Z,4.40
2018-01-22T16:57:24.588Z,4.20
2018-01-22T16:59:52.054Z,4.10
2018-01-22T17:02:20.230Z,4.10
2018-01-22T17:04:47.773Z,4.00
2018-01-22T17:07:15.232Z,4.10
2018-01-22T17:09:42.796Z,4.10
2018-01-22T17:12:10.350Z,4.20
2018-01-22T17:14:37.762Z,4.20
2018-01-22T17:17:05.358Z,4.20
2018-01-22T17:19:32.731Z,4.20
2018-01-22T17:22:00.191Z,4.30
2018-01-22T17:24:27.649Z,4.30
2018-01-22T17:26:55.098Z,4.30
2018-01-22T17:29:22.561Z,4.40
2018-01-22T17:31:50.103Z,4.50
2018-01-22T17:34:17.522Z,4.50
2018-01-22T17:36:45.864Z,4.30
2018-01-22T17:39:13.269Z,4.20
2018-01-22T17:41:40.735Z,4.20
2018-01-22T17:44:08.241Z,4.10
2018-01-22T17:46:35.690Z,4.10
2018-01-22T17:49:03.134Z,4.10
2018-01-22T17:51:30.582Z,4.20
2018-01-22T17:53:58.017Z,4.30
2018-01-22T17:56:25.453Z,4.30
2018-01-22T17:58:53.650Z,4.40
2018-01-22T18:01:21.091Z,4.40
2018-01-22T18:03:48.601Z,4.40
2018-01-22T18:06:16.045Z,4.30
2018-01-22T18:08:43.473Z,4.30
2018-01-22T18:11:11.748Z,4.40
2018-01-22T18:13:39.182Z,4.40
2018-01-22T18:16:07.414Z,4.30
2018-01-22T18:18:34.845Z,4.30
2018-01-22T18:21:02.301Z,4.40
2018-01-22T18:23:29.729Z,4.30
2018-01-22T18:25:57.954Z,4.40
2018-01-22T18:28:26.002Z,4.30
2018-01-22T18:30:54.414Z,4.40
2018-01-22T18:33:21.841Z,4.50
2018-01-22T18:35:49.274Z,4.40
2018-01-22T18:38:16.765Z,4.10
2018-01-22T18:40:44.307Z,4.00
2018-01-22T18:43:11.721Z,3.90
2018-01-22T18:45:39.941Z,4.00
2018-01-22T18:48:07.377Z,4.00
2018-01-22T18:50:34.818Z,4.10
2018-01-22T18:53:03.125Z,4.10
2018-01-22T18:55:30.558Z,4.00
2018-01-22T18:57:57.998Z,4.10
2018-01-22T19:00:26.237Z,3.90
2018-01-22T19:02:53.670Z,3.80
2018-01-22T19:05:21.177Z,3.80
2018-01-22T19:07:48.668Z,3.80
2018-01-22T19:10:16.105Z,3.80
2018-01-22T19:12:44.330Z,3.70
2018-01-22T19:15:11.766Z,3.70
2018-01-22T19:17:39.267Z,3.70
2018-01-22T19:20:06.710Z,3.60
2018-01-22T19:22:34.135Z,3.70
2018-01-22T19:25:01.700Z,3.70
2018-01-22T19:27:29.121Z,3.60
2018-01-22T19:29:57.349Z,3.60
2018-01-22T19:32:24.813Z,3.60
2018-01-22T19:34:52.390Z,3.70
2018-01-22T19:37:19.846Z,3.60
2018-01-22T19:39:47.393Z,3.60
2018-01-22T19:42:14.913Z,3.60
2018-01-22T19:44:42.404Z,3.50
2018-01-22T19:47:09.846Z,3.60
2018-01-22T19:49:37.293Z,3.70
2018-01-22T19:52:04.840Z,3.80
2018-01-22T19:54:32.890Z,4.00
2018-01-22T19:57:00.339Z,4.00
2018-01-22T19:59:27.864Z,3.80
2018-01-22T20:01:55.280Z,3.70
2018-01-22T20:04:22.760Z,3.60
2018-01-22T20:06:50.219Z,3.60
2018-01-22T20:09:17.643Z,3.50
2018-01-22T20:11:45.077Z,2.80
2018-01-22T20:14:13.302Z,3.50
2018-01-22T20:16:40.744Z,3.50
2018-01-22T20:19:08.187Z,3.50
2018-01-22T20:21:35.647Z,3.50
2018-01-22T20:24:03.126Z,3.60
2018-01-22T20:26:30.590Z,3.60
2018-01-22T20:28:58.205Z,3.70
2018-01-22T20:31:25.653Z,3.70
2018-01-22T20:33:53.096Z,3.90
2018-01-22T20:36:21.306Z,3.80
2018-01-22T20:38:48.746Z,3.80
2018-01-22T20:41:16.192Z,3.80
2018-01-22T20:43:44.377Z,3.80
2018-01-22T20:46:11.896Z,3.80
2018-01-22T20:48:39.430Z,3.80
2018-01-22T20:51:06.885Z,3.80
2018-01-22T20:53:34.310Z,3.70
2018-01-22T20:56:01.747Z,3.70
2018-01-22T20:58:30.062Z,3.70
2018-01-22T21:00:57.529Z,3.60
2018-01-22T21:03:24.976Z,3.60
2018-01-22T21:05:52.409Z,3.60
2018-01-22T21:08:19.846Z,3.60
2018-01-22T21:10:48.074Z,3.80
2018-01-22T21:13:15.506Z,3.70
2018-01-22T21:15:42.964Z,3.70
2018-01-22T21:18:10.369Z,3.70
2018-01-22T21:20:37.894Z,3.70
2018-01-22T21:23:05.352Z,3.70
2018-01-22T21:25:32.782Z,3.70
2018-01-22T21:28:00.217Z,3.70
2018-01-22T21:30:27.904Z,3.60
2018-01-22T21:32:55.471Z,3.70
2018-01-22T21:35:23.021Z,3.80
2018-01-22T21:37:50.447Z,3.90
2018-01-22T21:40:18.754Z,4.20
2018-01-22T21:42:46.208Z,4.20
2018-01-22T21:45:13.697Z,4.20
2018-01-22T21:47:41.251Z,4.20
2018-01-22T21:50:08.715Z,4.10
2018-01-22T21:52:36.249Z,4.10
2018-01-22T21:55:03.721Z,4.00
2018-01-22T21:57:31.270Z,4.00
2018-01-22T21:59:58.705Z,3.90
2018-01-22T22:02:26.202Z,3.90
2018-01-22T22:04:53.638Z,3.80
2018-01-22T22:07:21.083Z,3.80
2018-01-22T22:09:48.570Z,3.70
2018-01-22T22:12:15.990Z,3.70
2018-01-22T22:14:43.470Z,3.70
2018-01-22T22:17:10.910Z,3.70
2018-01-22T22:19:38.345Z,3.70
2018-01-22T22:22:05.788Z,3.70
2018-01-22T22:24:33.273Z,3.90
2018-01-22T22:27:00.686Z,4.00
2018-01-22T22:29:28.902Z,4.00
2018-01-22T22:31:56.337Z,3.90
2018-01-22T22:34:23.778Z,4.00
2018-01-22T22:36:51.976Z,4.10
2018-01-22T22:39:19.450Z,4.00
2018-01-22T22:41:46.942Z,4.10
2018-01-22T22:44:14.374Z,4.10
2018-01-22T22:46:41.833Z,4.10
2018-01-22T22:49:09.267Z,4.10
2018-01-22T22:51:36.849Z,4.00
2018-01-22T22:54:04.315Z,4.00
2018-01-22T22:56:31.975Z,3.90
2018-01-22T22:58:59.405Z,3.90
2018-01-22T23:01:26.830Z,3.90
2018-01-22T23:03:54.330Z,3.90
2018-01-22T23:06:21.794Z,3.90
2018-01-22T23:08:49.250Z,3.90
2018-01-22T23:11:16.682Z,3.90
2018-01-22T23:13:44.135Z,3.90
2018-01-22T23:16:11.622Z,3.90
2018-01-22T23:18:39.078Z,4.00
2018-01-22T23:21:06.544Z,4.00
2018-01-22T23:23:33.982Z,4.00
2018-01-22T23:26:01.414Z,3.90
2018-01-22T23:28:28.847Z,3.90
2018-01-22T23:30:57.041Z,4.00
2018-01-22T23:33:24.485Z,4.00
2018-01-22T23:35:51.913Z,4.00
2018-01-22T23:38:20.134Z,4.10
2018-01-22T23:40:47.618Z,4.10
2018-01-22T23:43:15.054Z,4.10
2018-01-22T23:45:42.496Z,4.30
2018-01-22T23:48:09.937Z,4.40
2018-01-22T23:50:37.370Z,4.40
2018-01-22T23:53:04.801Z,4.50
2018-01-22T23:55:32.246Z,4.60
2018-01-22T23:57:59.701Z,4.70
